Time;durP1;ratioP1;P1;durP2;ratioP2;P2;SDS_P1;SDS_P2;PMS_P1;PMS_P2;Temp;Humidity;BMP_temperature;BMP_pressure;BME280_temperature;BME280_humidity;BME280_pressure;Samples;Min_cycle;Max_cycle;Signal;HPM_P1;HPM_P2
2023/05/15 00:00:27;;;;;;;11.55;3.20;;;;;;;11.66;71.05;96282.31;4957891;29;20424;-76
2023/05/15 00:02:55;;;;;;;3.25;2.95;;;;;;;11.62;71.06;96288.91;4958159;28;20043;-76
2023/05/15 00:05:25;;;;;;;4.55;3.53;;;;;;;11.61;71.18;96293.34;4956957;29;20061;-77
2023/05/15 00:07:53;;;;;;;2.78;2.42;;;;;;;11.60;71.17;96281.28;4956401;29;20055;-77
2023/05/15 00:10:20;;;;;;;3.90;2.85;;;;;;;11.60;71.12;96281.28;4955967;29;20558;-76
2023/05/15 00:12:49;;;;;;;2.88;2.67;;;;;;;11.60;71.33;96285.69;4956271;28;20528;-76
2023/05/15 00:15:16;;;;;;;3.33;3.03;;;;;;;11.65;73.41;96276.25;4956381;28;20058;-75
2023/05/15 00:17:44;;;;;;;6.28;4.50;;;;;;;11.75;74.27;96279.31;4956176;28;20055;-76
2023/05/15 00:20:12;;;;;;;4.20;3.80;;;;;;;11.82;74.83;96268.88;4956640;29;20047;-76
2023/05/15 00:22:41;;;;;;;4.07;3.45;;;;;;;11.89;75.39;96277.56;4955830;28;20051;-76
2023/05/15 00:25:09;;;;;;;4.07;3.55;;;;;;;11.93;75.80;96280.59;4957586;28;20055;-79
2023/05/15 00:27:37;;;;;;;4.97;3.58;;;;;;;11.94;74.12;96285.63;4968243;28;20051;-75
2023/05/15 00:30:06;;;;;;;4.03;3.63;;;;;;;11.95;74.76;96273.34;4964193;28;20047;-78
2023/05/15 00:32:33;;;;;;;5.45;3.80;;;;;;;12.03;77.11;96264.53;4959192;28;20043;-75
2023/05/15 00:35:01;;;;;;;5.20;3.70;;;;;;;12.06;75.52;96270.16;4956585;28;20051;-76
2023/05/15 00:37:28;;;;;;;5.38;4.30;;;;;;;12.11;75.79;96261.72;4956369;28;20142;-75
2023/05/15 00:39:57;;;;;;;5.07;4.25;;;;;;;12.16;78.14;96259.31;4955988;29;20058;-76
2023/05/15 00:42:25;;;;;;;6.40;4.53;;;;;;;12.24;79.18;96261.72;4956419;28;20051;-75
2023/05/15 00:44:53;;;;;;;5.20;3.60;;;;;;;12.28;78.68;96257.69;4956144;29;20062;-75
2023/05/15 00:47:23;;;;;;;4.78;3.53;;;;;;;12.27;77.58;96261.34;4955962;28;20578;-76
2023/05/15 00:49:51;;;;;;;5.53;3.58;;;;;;;12.27;78.08;96255.31;4956334;28;20077;-75
2023/05/15 00:52:20;;;;;;;5.50;3.50;;;;;;;12.31;79.52;96254.69;4956326;28;20079;-76
2023/05/15 00:54:48;;;;;;;4.10;3.70;;;;;;;12.35;78.85;96249.84;4955741;28;20051;-75
2023/05/15 00:57:17;;;;;;;4.55;3.75;;;;;;;12.31;76.13;96257.31;4955654;28;20047;-77
2023/05/15 00:59:46;;;;;;;5.03;3.33;;;;;;;12.28;75.76;96251.69;4956019;29;20057;-77
2023/05/15 01:02:17;;;;;;;9.10;4.05;;;;;;;12.22;73.68;96252.47;4955901;28;20055;-75
2023/05/15 01:04:45;;;;;;;6.90;4.28;;;;;;;12.14;73.36;96250.88;4955653;28;20113;-77
2023/05/15 01:07:12;;;;;;;4.00;3.40;;;;;;;12.09;73.60;96248.84;4955664;28;20047;-76
2023/05/15 01:09:42;;;;;;;7.20;3.97;;;;;;;12.09;74.36;96242.81;4955951;28;20055;-76
2023/05/15 01:12:11;;;;;;;4.18;3.00;;;;;;;12.12;75.69;96243.22;4956150;28;20054;-77
2023/05/15 01:14:40;;;;;;;3.95;3.55;;;;;;;12.12;74.72;96240.59;4955791;29;20054;-76
2023/05/15 01:17:08;;;;;;;4.20;3.75;;;;;;;12.16;76.64;96244.44;4957162;28;20051;-75
2023/05/15 01:19:35;;;;;;;4.68;3.90;;;;;;;12.22;77.74;96245.41;4955720;29;20051;-76
2023/05/15 01:22:34;;;;;;;5.35;3.67;;;;;;;12.21;75.23;96243.03;4955694;28;20075;-77
2023/05/15 01:25:44;;;;;;;5.13;4.03;;;;;;;12.16;76.87;96243.63;4958170;29;20059;-76
2023/05/15 01:28:18;;;;;;;4.68;3.88;;;;;;;12.17;78.09;96245.22;4955427;29;20051;-76
2023/05/15 01:30:49;;;;;;;5.50;4.53;;;;;;;12.22;79.42;96237.56;4955305;28;20074;-76
2023/05/15 01:33:22;;;;;;;4.53;4.05;;;;;;;12.22;76.32;96245.41;4955517;28;20047;-75
2023/05/15 01:35:55;;;;;;;4.72;3.45;;;;;;;12.16;74.52;96243.63;4955283;29;20098;-77
2023/05/15 01:38:30;;;;;;;4.88;4.15;;;;;;;12.11;76.38;96241.63;4955376;29;20051;-76
2023/05/15 01:41:02;;;;;;;4.57;3.97;;;;;;;12.13;77.31;96244.00;4955110;28;20495;-76
2023/05/15 01:43:35;;;;;;;6.90;4.22;;;;;;;12.10;75.11;96241.81;4955734;28;20043;-77
2023/05/15 01:46:04;;;;;;;5.45;4.25;;;;;;;12.06;75.15;96243.22;4958558;28;20051;-75
2023/05/15 01:48:34;;;;;;;4.45;3.70;;;;;;;12.07;75.50;96234.34;4958755;28;20095;-78
2023/05/15 01:51:06;;;;;;;4.93;3.88;;;;;;;12.11;77.77;96241.63;4955018;28;20058;-75
2023/05/15 01:53:36;;;;;;;4.20;3.80;;;;;;;12.19;78.85;96245.84;4955091;28;20043;-79
2023/05/15 01:56:06;;;;;;;5.00;4.07;;;;;;;12.23;78.77;96233.97;4955196;28;20476;-76
2023/05/15 01:58:37;;;;;;;5.57;4.93;;;;;;;12.25;79.94;96242.44;4956341;29;20055;-77
2023/05/15 02:01:06;;;;;;;6.07;4.68;;;;;;;12.25;78.58;96234.59;4955001;28;20051;-76
2023/05/15 02:03:34;;;;;;;5.60;4.60;;;;;;;12.22;77.07;96237.56;4955377;29;20051;-76
2023/05/15 02:06:02;;;;;;;5.47;4.85;;;;;;;12.23;78.53;96233.19;4955098;28;20130;-75
2023/05/15 02:08:31;;;;;;;7.70;4.63;;;;;;;12.19;76.67;96235.38;4956519;28;20055;-76
2023/05/15 02:11:00;;;;;;;4.78;4.28;;;;;;;12.13;76.10;96230.94;4955338;28;20067;-77
2023/05/15 02:13:28;;;;;;;4.88;4.10;;;;;;;12.10;76.04;96233.97;4955180;29;20086;-77
2023/05/15 02:15:57;;;;;;;4.78;3.72;;;;;;;12.11;77.30;96230.34;4955339;28;20051;-74
2023/05/15 02:18:27;;;;;;;6.63;3.97;;;;;;;12.11;76.29;96230.34;4958854;28;20078;-76
2023/05/15 02:20:54;;;;;;;6.40;5.05;;;;;;;12.07;75.96;96227.34;4959414;28;20051;-76
2023/05/15 02:23:22;;;;;;;5.72;5.03;;;;;;;12.04;75.98;96224.31;4960325;28;20054;-77
2023/05/15 02:26:13;;;;;;;6.35;5.65;;;;;;;12.00;76.46;96217.88;4959196;28;20055;-77
2023/05/15 02:28:47;;;;;;;3.83;3.42;;;;;;;12.00;76.65;96215.25;4960563;28;20103;-76
2023/05/15 02:31:26;;;;;;;4.55;4.15;;;;;;;12.05;79.25;96215.47;4963512;28;20063;-77
2023/05/15 02:34:03;;;;;;;4.93;4.32;;;;;;;12.06;77.74;96217.88;4959540;29;20220;-76
2023/05/15 02:36:35;;;;;;;5.55;4.00;;;;;;;12.09;79.17;96216.66;4958799;28;20058;-77
2023/05/15 02:39:03;;;;;;;6.90;4.05;;;;;;;12.14;79.50;96214.25;4959062;29;20051;-76
2023/05/15 02:41:33;;;;;;;8.45;5.28;;;;;;;12.15;78.49;96216.66;4958275;28;20538;-76
2023/05/15 02:44:01;;;;;;;6.18;4.43;;;;;;;12.11;77.47;96214.66;4958175;28;20054;-77
2023/05/15 02:46:32;;;;;;;5.10;4.07;;;;;;;12.12;78.11;96221.50;4959666;28;20447;-77
2023/05/15 02:49:00;;;;;;;4.20;3.80;;;;;;;12.16;79.60;96220.09;4958797;28;20043;-75
2023/05/15 02:51:28;;;;;;;5.35;4.85;;;;;;;12.24;80.88;96216.47;4958427;28;20490;-76
2023/05/15 02:53:58;;;;;;;5.75;4.78;;;;;;;12.30;81.80;96226.13;4958487;29;20123;-77
2023/05/15 02:56:25;;;;;;;5.43;4.82;;;;;;;12.35;81.99;96221.09;4960034;28;20047;-75
2023/05/15 02:58:53;;;;;;;5.25;4.05;;;;;;;12.34;81.84;96220.28;4958805;29;20051;-76
2023/05/15 03:01:20;;;;;;;4.57;4.00;;;;;;;12.35;82.15;96218.47;4959124;28;20051;-76
2023/05/15 03:03:49;;;;;;;4.57;4.18;;;;;;;12.38;83.21;96225.94;4958134;28;20072;-76
2023/05/15 03:06:17;;;;;;;4.65;4.18;;;;;;;12.42;83.44;96215.84;4958607;28;20059;-77
2023/05/15 03:08:45;;;;;;;5.82;5.15;;;;;;;12.38;80.84;96219.91;4958782;29;20051;-77
2023/05/15 03:11:12;;;;;;;5.00;4.50;;;;;;;12.34;82.00;96219.50;4958263;28;20055;-77
2023/05/15 03:13:40;;;;;;;5.13;4.30;;;;;;;12.38;83.22;96222.53;4958999;28;20047;-76
2023/05/15 03:16:08;;;;;;;5.75;5.13;;;;;;;12.41;83.88;96224.72;4959008;29;20412;-76
2023/05/15 03:18:35;;;;;;;5.60;5.05;;;;;;;12.43;84.51;96227.94;4959123;29;20114;-75
2023/05/15 03:21:05;;;;;;;5.53;4.78;;;;;;;12.43;84.17;96227.94;4958719;28;20130;-77
2023/05/15 03:23:32;;;;;;;5.22;4.47;;;;;;;12.42;84.46;96226.31;4959686;28;20077;-77
2023/05/15 03:26:03;;;;;;;5.30;4.80;;;;;;;12.43;85.16;96227.94;4959120;28;20089;-77
2023/05/15 03:28:31;;;;;;;6.18;5.05;;;;;;;12.39;82.26;96229.34;4957497;28;20059;-76
2023/05/15 03:30:58;;;;;;;7.00;5.22;;;;;;;12.26;79.45;96230.16;4958241;28;20063;-76
2023/05/15 03:33:26;;;;;;;5.90;5.35;;;;;;;12.15;80.10;96231.56;4958479;29;20047;-76
2023/05/15 03:35:53;;;;;;;7.38;5.70;;;;;;;12.09;78.92;96224.50;4958535;29;20062;-78
2023/05/15 03:38:22;;;;;;;7.35;6.03;;;;;;;12.01;77.99;96230.75;4958112;29;20051;-76
2023/05/15 03:40:49;;;;;;;6.82;5.97;;;;;;;11.95;78.21;96227.09;4957980;28;20051;-75
2023/05/15 03:43:17;;;;;;;7.88;5.68;;;;;;;11.90;77.81;96229.53;4957195;28;20106;-78
2023/05/15 03:45:45;;;;;;;6.47;5.88;;;;;;;11.85;78.36;96237.13;4957389;28;20070;-77
2023/05/15 03:48:12;;;;;;;7.10;6.40;;;;;;;11.85;78.29;96236.31;4955384;28;20055;-77
2023/05/15 03:50:40;;;;;;;7.55;6.22;;;;;;;11.82;77.76;96242.75;4954044;29;20450;-76
2023/05/15 03:53:08;;;;;;;6.50;5.80;;;;;;;11.81;78.00;96242.97;4956518;28;20057;-77
2023/05/15 03:55:37;;;;;;;7.28;6.13;;;;;;;11.85;79.32;96246.75;4956479;29;20051;-76
2023/05/15 03:58:04;;;;;;;13.70;7.68;;;;;;;11.88;78.97;96238.56;4956465;28;20058;-76
2023/05/15 04:00:32;;;;;;;6.35;5.53;;;;;;;11.91;80.11;96241.56;4956056;28;20652;-77
2023/05/15 04:02:59;;;;;;;8.70;5.63;;;;;;;11.95;80.72;96242.78;4956563;29;20047;-78
2023/05/15 04:05:27;;;;;;;10.00;8.18;;;;;;;12.00;79.95;96247.41;4957063;29;20059;-76
2023/05/15 04:07:55;;;;;;;7.47;6.50;;;;;;;12.03;81.14;96243.63;4956336;29;20507;-77
2023/05/15 04:10:22;;;;;;;8.18;7.30;;;;;;;12.09;82.30;96241.00;4957203;28;20058;-76
2023/05/15 04:12:52;;;;;;;9.05;7.53;;;;;;;12.13;83.23;96244.00;4948626;28;20090;-78
2023/05/15 04:15:21;;;;;;;8.98;7.70;;;;;;;12.14;81.72;96240.41;4955958;28;20086;-77
2023/05/15 04:17:51;;;;;;;10.30;7.82;;;;;;;12.15;80.90;96239.41;4956538;28;20043;-79
2023/05/15 04:20:21;;;;;;;8.63;7.60;;;;;;;12.16;80.75;96248.88;4959756;28;20058;-79
2023/05/15 04:22:49;;;;;;;8.50;7.60;;;;;;;12.20;82.37;96250.06;4985864;23;20053;-81
2023/05/15 04:25:17;;;;;;;8.07;7.28;;;;;;;12.26;83.85;96245.84;4975320;29;20103;-81
2023/05/15 04:27:45;;;;;;;9.90;8.65;;;;;;;12.28;84.27;96252.47;4969994;28;20059;-81
2023/05/15 04:30:14;;;;;;;9.27;7.88;;;;;;;12.29;83.53;96253.31;4956827;29;20056;-81
2023/05/15 04:32:42;;;;;;;10.15;8.05;;;;;;;12.24;81.07;96255.69;4954831;29;20032;-81
2023/05/15 04:35:12;;;;;;;9.80;8.48;;;;;;;12.19;79.95;96252.88;4954906;29;20047;-81
2023/05/15 04:37:41;;;;;;;9.63;7.35;;;;;;;12.17;81.33;96250.47;4960847;28;20040;-80
2023/05/15 04:40:10;;;;;;;10.23;8.25;;;;;;;12.18;79.97;96257.31;4960286;29;20070;-81
2023/05/15 04:42:37;;;;;;;9.77;8.23;;;;;;;12.15;80.28;96249.84;4960315;28;20056;-81
2023/05/15 04:45:08;;;;;;;10.82;8.82;;;;;;;12.19;81.58;96256.28;4949412;29;20131;-81
2023/05/15 04:47:36;;;;;;;9.73;8.10;;;;;;;12.19;81.31;96253.69;4957124;29;20056;-81
2023/05/15 04:50:05;;;;;;;9.07;7.68;;;;;;;12.18;81.47;96249.47;4954395;29;20135;-81
2023/05/15 04:52:33;;;;;;;11.88;10.30;;;;;;;12.23;82.15;96254.09;4958864;28;20039;-81
2023/05/15 04:55:01;;;;;;;9.68;8.68;;;;;;;12.24;81.55;96245.22;4960467;28;20083;-80
2023/05/15 04:57:29;;;;;;;10.20;8.93;;;;;;;12.27;82.27;96245.66;4961049;28;20059;-81
2023/05/15 04:59:57;;;;;;;10.15;8.38;;;;;;;12.31;83.05;96243.41;4960325;28;20051;-80
2023/05/15 05:02:25;;;;;;;11.60;8.00;;;;;;;12.31;82.29;96246.84;4959987;28;20047;-79
2023/05/15 05:04:54;;;;;;;9.57;8.25;;;;;;;12.32;83.13;96252.88;4957245;29;20063;-79
2023/05/15 05:07:21;;;;;;;9.32;8.32;;;;;;;12.30;82.68;96260.13;4957696;29;20043;-79
2023/05/15 05:09:50;;;;;;;9.60;8.60;;;;;;;12.30;83.07;96250.47;4959081;28;20066;-81
2023/05/15 05:12:17;;;;;;;8.77;7.85;;;;;;;12.31;83.17;96257.31;4957481;29;20079;-81
2023/05/15 05:14:45;;;;;;;9.48;8.00;;;;;;;12.32;82.85;96256.31;4953222;28;20057;-81
2023/05/15 05:17:13;;;;;;;11.13;8.18;;;;;;;12.36;82.53;96260.13;4958751;28;20048;-79
2023/05/15 05:19:41;;;;;;;9.57;8.40;;;;;;;12.40;82.64;96259.72;4941437;29;20058;-81
2023/05/15 05:22:10;;;;;;;12.75;9.32;;;;;;;12.42;82.06;96258.53;4958773;23;20051;-81
2023/05/15 05:27:31;;;;;;;12.10;8.80;;;;;;;12.44;81.68;96260.94;5332913;23;20045;-81
2023/05/15 05:30:02;;;;;;;11.52;9.45;;;;;;;12.43;80.39;96260.13;4999570;28;20082;-80
2023/05/15 05:32:36;;;;;;;11.20;8.95;;;;;;;12.46;82.34;96264.16;4997282;28;20055;-80
2023/05/15 05:35:12;;;;;;;12.68;9.95;;;;;;;12.52;83.16;96265.97;4980257;28;20034;-80
2023/05/15 05:37:52;;;;;;;10.88;9.45;;;;;;;12.55;82.84;96268.16;4979849;28;20050;-79
2023/05/15 05:40:32;;;;;;;9.85;8.15;;;;;;;12.56;81.93;96269.78;4979472;28;20043;-80
2023/05/15 05:43:02;;;;;;;11.25;8.65;;;;;;;12.58;81.27;96267.78;4979781;28;20058;-79
2023/05/15 05:45:35;;;;;;;9.95;8.80;;;;;;;12.61;81.67;96269.19;4979482;28;20049;-79
2023/05/15 05:48:07;;;;;;;10.85;8.68;;;;;;;12.66;82.17;96264.97;4979386;28;20664;-80
2023/05/15 05:50:46;;;;;;;11.48;7.25;;;;;;;12.71;81.96;96272.19;4978785;29;20066;-80
2023/05/15 05:53:20;;;;;;;7.93;6.85;;;;;;;12.76;81.63;96278.41;4977129;28;20035;-80
2023/05/15 05:56:04;;;;;;;8.70;7.13;;;;;;;12.78;79.47;96263.31;4979247;28;20055;-80
2023/05/15 05:58:37;;;;;;;8.77;7.55;;;;;;;12.82;80.83;96268.16;4979136;28;20046;-80
2023/05/15 06:01:07;;;;;;;9.48;7.57;;;;;;;12.87;81.04;96271.75;4979388;29;20066;-80
2023/05/15 06:03:38;;;;;;;7.47;6.65;;;;;;;12.91;79.39;96272.16;4979185;28;20057;-80
2023/05/15 06:06:11;;;;;;;10.65;8.30;;;;;;;12.96;80.75;96275.75;4979556;28;20078;-80
2023/05/15 06:08:43;;;;;;;9.77;7.30;;;;;;;13.02;81.84;96271.53;4979393;28;20090;-80
2023/05/15 06:11:13;;;;;;;;;;;;;;;13.08;81.77;96267.31;4963655;29;20103;-79
2023/05/15 06:13:43;;;;;;;8.80;7.22;;;;;;;13.10;80.71;96262.66;4979230;28;19937;-79
2023/05/15 06:16:14;;;;;;;7.38;6.63;;;;;;;13.09;79.69;96259.22;4979275;28;20043;-80
2023/05/15 06:18:46;;;;;;;6.70;5.97;;;;;;;13.08;78.52;96268.09;4962530;29;20032;-80
2023/05/15 06:21:21;;;;;;;7.28;6.18;;;;;;;13.08;77.13;96265.47;4979207;28;20047;-79
2023/05/15 06:23:52;;;;;;;7.53;6.57;;;;;;;13.12;75.99;96258.03;4978881;28;20075;-81
2023/05/15 06:26:21;;;;;;;7.75;6.88;;;;;;;13.14;77.55;96263.84;4979083;28;20039;-79
2023/05/15 06:28:53;;;;;;;10.38;6.35;;;;;;;13.20;76.57;96266.44;4978986;28;20098;-80
2023/05/15 06:31:22;;;;;;;7.60;6.00;;;;;;;13.26;77.48;96256.16;4978757;28;20047;-80
2023/05/15 06:33:52;;;;;;;6.93;6.18;;;;;;;13.33;77.83;96264.81;4979034;28;20040;-80
2023/05/15 06:36:24;;;;;;;6.75;6.05;;;;;;;13.41;77.53;96258.56;4978965;28;20039;-80
2023/05/15 06:38:55;;;;;;;7.50;5.40;;;;;;;13.47;76.72;96260.34;4978839;29;20075;-80
2023/05/15 06:41:25;;;;;;;6.13;5.53;;;;;;;13.52;76.07;96260.53;4979196;28;20055;-80
2023/05/15 06:43:54;;;;;;;6.20;5.32;;;;;;;13.62;77.02;96266.09;4978612;28;20047;-80
2023/05/15 06:46:28;;;;;;;8.00;5.80;;;;;;;13.70;76.51;96265.09;4978650;28;20110;-79
2023/05/15 06:48:59;;;;;;;6.32;5.32;;;;;;;13.76;75.76;96270.28;4978518;28;20067;-80
2023/05/15 06:51:29;;;;;;;6.32;5.72;;;;;;;13.83;75.62;96270.25;4978621;28;20055;-80
2023/05/15 06:54:02;;;;;;;9.02;5.80;;;;;;;13.90;74.81;96270.22;4978434;28;20047;-80
2023/05/15 06:56:34;;;;;;;7.57;5.57;;;;;;;13.96;75.41;96277.25;4978418;28;20075;-80
2023/05/15 06:59:04;;;;;;;5.32;4.82;;;;;;;14.04;74.80;96281.41;4978652;28;20116;-79
2023/05/15 07:01:34;;;;;;;6.00;5.43;;;;;;;14.09;74.39;96281.59;4978434;28;20043;-80
2023/05/15 07:04:05;;;;;;;10.85;5.60;;;;;;;14.15;74.15;96281.56;4981653;28;20035;-81
2023/05/15 07:06:36;;;;;;;6.70;4.90;;;;;;;14.22;72.64;96284.16;4982110;29;20073;-80
2023/05/15 07:09:08;;;;;;;5.93;5.32;;;;;;;14.27;73.15;96276.44;4981781;29;20077;-79
2023/05/15 07:11:37;;;;;;;5.55;5.05;;;;;;;14.35;73.96;96276.19;4982085;28;20066;-80
2023/05/15 07:14:07;;;;;;;6.53;5.07;;;;;;;14.42;72.74;96284.00;4981411;28;20055;-80
2023/05/15 07:16:36;;;;;;;7.32;5.88;;;;;;;14.46;72.44;96279.13;4981844;28;20066;-79
2023/05/15 07:19:05;;;;;;;6.43;5.82;;;;;;;14.47;72.54;96276.28;4981580;28;20047;-80
2023/05/15 07:21:35;;;;;;;7.35;5.85;;;;;;;14.54;71.72;96270.97;4981675;28;20050;-80
2023/05/15 07:24:08;;;;;;;6.68;5.60;;;;;;;14.56;73.06;96268.97;4981543;28;20047;-79
2023/05/15 07:26:39;;;;;;;5.88;5.28;;;;;;;14.59;72.03;96276.44;4981315;28;20051;-80
2023/05/15 07:29:26;;;;;;;6.13;4.78;;;;;;;14.64;71.57;96276.59;4967636;29;20484;-79
2023/05/15 07:31:56;;;;;;;6.88;5.20;;;;;;;14.70;71.37;96277.56;4981261;29;20094;-80
2023/05/15 07:34:26;;;;;;;5.22;4.72;;;;;;;14.74;71.33;96276.13;4980739;28;20075;-80
2023/05/15 07:36:55;;;;;;;5.30;4.80;;;;;;;14.77;71.86;96279.09;4981046;28;20048;-80
2023/05/15 07:39:27;;;;;;;8.05;5.28;;;;;;;14.79;69.82;96278.88;4981303;29;20059;-80
2023/05/15 07:41:56;;;;;;;5.68;4.32;;;;;;;14.82;70.97;96271.38;4981102;28;20047;-80
2023/05/15 07:44:25;;;;;;;6.70;4.78;;;;;;;14.88;70.13;96282.03;4981281;28;20074;-80
2023/05/15 07:46:56;;;;;;;5.53;4.60;;;;;;;14.92;68.58;96272.72;4981063;28;20035;-80
2023/05/15 07:49:26;;;;;;;4.85;4.22;;;;;;;14.95;68.38;96277.50;4981279;29;20051;-81
2023/05/15 07:51:56;;;;;;;4.90;4.40;;;;;;;15.03;69.55;96279.88;4981261;28;20050;-80
2023/05/15 07:54:30;;;;;;;6.45;4.65;;;;;;;15.11;67.75;96273.50;4980637;28;20043;-79
2023/05/15 07:57:00;;;;;;;5.72;5.15;;;;;;;15.16;68.59;96271.84;4980804;28;20058;-79
2023/05/15 07:59:31;;;;;;;6.05;4.93;;;;;;;15.21;67.56;96261.47;4981142;29;20027;-80
2023/05/15 08:02:00;;;;;;;6.63;5.15;;;;;;;15.31;69.20;96265.44;4980969;29;20050;-80
2023/05/15 08:04:32;;;;;;;5.47;4.43;;;;;;;15.39;67.79;96257.22;4980791;28;20047;-79
2023/05/15 08:07:04;;;;;;;5.60;4.95;;;;;;;15.45;67.25;96259.78;4981364;28;20045;-80
2023/05/15 08:09:35;;;;;;;5.20;4.65;;;;;;;15.54;68.99;96260.28;4981815;28;20063;-80
2023/05/15 08:12:19;;;;;;;5.15;4.65;;;;;;;15.61;69.00;96258.41;4981460;28;20039;-80
2023/05/15 08:14:52;;;;;;;4.88;4.47;;;;;;;15.69;69.14;96253.84;4979466;28;20149;-80
2023/05/15 08:17:22;;;;;;;4.72;4.32;;;;;;;15.77;68.86;96253.56;4980563;28;20078;-80
2023/05/15 08:19:52;;;;;;;4.35;3.92;;;;;;;15.84;69.70;96249.03;4980073;29;20047;-79
2023/05/15 08:22:21;;;;;;;5.72;4.57;;;;;;;15.88;67.03;96250.19;4980502;28;20039;-80
2023/05/15 08:24:51;;;;;;;5.47;4.85;;;;;;;15.90;67.08;96247.34;4980109;28;20051;-80
2023/05/15 08:27:24;;;;;;;6.70;4.35;;;;;;;15.89;66.85;96251.78;4980085;29;20047;-80
2023/05/15 08:29:56;;;;;;;4.93;4.05;;;;;;;15.89;67.12;96251.78;4980082;28;20079;-79
2023/05/15 08:32:26;;;;;;;4.80;4.30;;;;;;;15.92;66.35;96251.34;4980119;28;20074;-80
2023/05/15 08:34:58;;;;;;;6.45;4.00;;;;;;;15.95;65.59;96250.88;4980032;28;20074;-80
2023/05/15 08:37:30;;;;;;;6.03;4.28;;;;;;;15.96;66.52;96241.97;4980197;28;20491;-80
2023/05/15 08:40:04;;;;;;;5.15;4.55;;;;;;;15.99;66.17;96246.00;4980658;28;20055;-81
2023/05/15 08:42:37;;;;;;;4.15;3.75;;;;;;;16.01;65.32;96250.00;4980679;28;20039;-80
2023/05/15 08:45:08;;;;;;;4.50;4.07;;;;;;;16.00;65.50;96248.38;4980540;28;20055;-80
2023/05/15 08:47:41;;;;;;;4.88;4.10;;;;;;;16.00;64.40;96243.13;4981047;28;20074;-80
2023/05/15 08:50:12;;;;;;;5.07;4.30;;;;;;;15.99;65.49;96240.72;4981084;28;20046;-80
2023/05/15 08:52:44;;;;;;;4.80;4.40;;;;;;;16.02;67.09;96241.06;4981183;28;20031;-80
2023/05/15 08:55:15;;;;;;;4.53;4.13;;;;;;;16.04;66.95;96239.00;4980326;28;20107;-80
2023/05/15 08:57:46;;;;;;;4.75;4.32;;;;;;;16.04;66.03;96244.28;4980040;28;20071;-80
2023/05/15 09:00:20;;;;;;;5.03;4.53;;;;;;;16.04;67.40;96239.00;4979722;28;20054;-81
2023/05/15 09:02:51;;;;;;;7.78;4.28;;;;;;;16.04;65.01;96233.75;4979770;28;20047;-80
2023/05/15 09:05:24;;;;;;;4.32;3.92;;;;;;;16.06;64.34;96239.59;4979597;28;20063;-80
2023/05/15 09:07:54;;;;;;;;;;;;;;;16.15;64.33;96234.81;4979999;28;20102;-79
2023/05/15 09:10:29;;;;;;;6.05;4.68;;;;;;;16.23;66.21;96229.22;4979385;28;19907;-79
2023/05/15 09:13:02;;;;;;;5.57;3.72;;;;;;;16.35;65.06;96228.44;4979198;28;20051;-80
2023/05/15 09:15:33;;;;;;;4.88;4.38;;;;;;;16.43;63.14;96222.84;4979182;29;20047;-81
2023/05/15 09:18:06;;;;;;;4.55;3.85;;;;;;;16.51;62.73;96216.41;4979547;28;20051;-80
2023/05/15 09:20:39;;;;;;;5.85;3.92;;;;;;;16.61;61.08;96216.66;4979686;28;20047;-81
2023/05/15 09:23:25;;;;;;;3.97;3.63;;;;;;;16.73;60.05;96214.03;4980125;28;20042;-81
2023/05/15 09:26:00;;;;;;;5.57;4.40;;;;;;;16.81;59.12;96211.88;4979456;28;20047;-79
2023/05/15 09:28:32;;;;;;;4.15;3.85;;;;;;;16.87;58.34;96218.84;4979229;28;20063;-81
2023/05/15 09:31:06;;;;;;;5.65;4.22;;;;;;;16.88;59.75;96215.19;4979325;28;20063;-80
2023/05/15 09:33:37;;;;;;;5.97;4.05;;;;;;;16.89;59.88;96208.09;4979462;28;20062;-80
2023/05/15 09:36:07;;;;;;;4.90;4.47;;;;;;;16.89;61.55;96213.34;4979092;28;20062;-81
2023/05/15 09:38:47;;;;;;;5.10;4.20;;;;;;;16.86;60.21;96216.47;4979361;28;20043;-80
2023/05/15 09:41:28;;;;;;;4.78;4.38;;;;;;;16.86;60.10;96225.16;4978484;28;20100;-81
2023/05/15 09:44:00;;;;;;;5.38;4.38;;;;;;;16.80;59.54;96220.81;4979194;28;20070;-80
2023/05/15 09:46:31;;;;;;;7.82;4.78;;;;;;;16.77;60.61;96218.63;4979129;28;20051;-79
2023/05/15 09:49:05;;;;;;;3.80;3.50;;;;;;;16.75;60.91;96210.13;4978262;29;20107;-81
2023/05/15 09:51:36;;;;;;;7.15;4.25;;;;;;;16.72;60.78;96212.41;4978784;28;20062;-81
2023/05/15 09:54:07;;;;;;;4.40;4.00;;;;;;;16.72;62.79;96212.41;4979015;28;20035;-81
2023/05/15 09:56:38;;;;;;;4.75;4.35;;;;;;;16.75;63.48;96211.94;4978797;29;20058;-81
2023/05/15 09:59:14;;;;;;;4.85;4.45;;;;;;;16.73;62.88;96204.31;4979222;28;20050;-81
2023/05/15 10:01:47;;;;;;;4.95;4.53;;;;;;;16.74;62.84;96208.53;4962867;29;20051;-81
2023/05/15 10:04:18;;;;;;;6.95;4.35;;;;;;;16.80;62.19;96204.22;4978711;28;20043;-80
2023/05/15 10:06:52;;;;;;;4.72;4.35;;;;;;;16.85;62.07;96205.09;4978346;28;20083;-79
2023/05/15 10:09:23;;;;;;;5.32;4.18;;;;;;;16.98;62.66;96198.00;4978301;29;20067;-79
2023/05/15 10:11:58;;;;;;;5.05;4.65;;;;;;;17.09;63.58;96208.50;4978157;29;20054;-79
2023/05/15 10:14:30;;;;;;;4.63;4.22;;;;;;;17.19;63.35;96205.28;4978668;28;20075;-80
2023/05/15 10:17:02;;;;;;;3.80;3.50;;;;;;;17.27;62.93;96204.09;4978975;28;20036;-79
2023/05/15 10:19:39;;;;;;;5.05;4.20;;;;;;;17.36;62.54;96196.63;4963323;28;20063;-80
2023/05/15 10:22:32;;;;;;;4.32;3.90;;;;;;;17.48;59.92;96194.75;4978970;28;20038;-81
2023/05/15 10:25:09;;;;;;;4.88;4.40;;;;;;;17.59;61.59;96185.22;4967390;23;20055;-75
2023/05/15 10:27:40;;;;;;;4.65;4.25;;;;;;;17.71;60.39;96185.97;4973098;28;20051;-75
2023/05/15 10:30:10;;;;;;;4.45;3.97;;;;;;;17.81;60.14;96187.97;4973439;28;20051;-75
2023/05/15 10:32:40;;;;;;;4.43;4.03;;;;;;;17.91;60.42;96186.34;4973122;28;20046;-75
2023/05/15 10:35:10;;;;;;;5.40;4.57;;;;;;;17.99;57.29;96184.34;4954505;28;20159;-75
2023/05/15 10:37:39;;;;;;;5.43;4.10;;;;;;;18.02;56.04;96189.94;4954917;28;20182;-75
2023/05/15 10:40:09;;;;;;;3.67;3.38;;;;;;;18.02;55.17;96192.59;4957760;28;20059;-75
2023/05/15 10:42:42;;;;;;;5.25;4.10;;;;;;;18.01;52.56;96183.06;4957702;28;20047;-75
2023/05/15 10:45:10;;;;;;;3.90;3.50;;;;;;;18.00;52.78;96186.75;4957475;28;20063;-75
2023/05/15 10:47:39;;;;;;;5.15;3.58;;;;;;;18.02;53.22;96182.03;4957472;29;20047;-75
2023/05/15 10:50:08;;;;;;;3.72;3.30;;;;;;;18.08;53.59;96182.91;4957479;28;20051;-76
2023/05/15 10:52:37;;;;;;;3.50;3.17;;;;;;;18.14;56.06;96170.59;4957497;28;20126;-76
2023/05/15 10:55:07;;;;;;;4.88;3.72;;;;;;;18.20;55.16;96164.38;4957263;28;20570;-75
2023/05/15 10:57:35;;;;;;;4.40;4.00;;;;;;;18.26;53.32;96166.03;4957357;29;20431;-75
2023/05/15 11:00:24;;;;;;;4.10;3.80;;;;;;;18.31;52.20;96171.41;4957135;28;20051;-76
2023/05/15 11:02:55;;;;;;;5.88;5.38;;;;;;;18.31;53.07;96166.13;4957712;28;20055;-76
2023/05/15 11:05:24;;;;;;;7.35;5.18;;;;;;;18.29;53.64;96166.34;4958034;29;20051;-76
2023/05/15 11:08:24;;;;;;;4.57;4.18;;;;;;;18.35;53.44;96166.44;4958565;28;20047;-76
2023/05/15 11:10:52;;;;;;;4.60;4.20;;;;;;;18.36;52.93;96165.38;4957802;29;20441;-76
2023/05/15 11:13:20;;;;;;;4.90;4.47;;;;;;;18.35;52.73;96161.16;4958462;28;20073;-76
2023/05/15 11:15:49;;;;;;;5.72;4.28;;;;;;;18.33;54.41;96158.75;4957056;29;20578;-76
2023/05/15 11:18:17;;;;;;;4.53;4.22;;;;;;;18.34;53.91;96152.41;4957099;29;20051;-76
2023/05/15 11:21:06;;;;;;;4.90;3.85;;;;;;;18.36;55.40;96147.69;4956689;29;20495;-76
2023/05/15 11:23:38;;;;;;;5.43;4.55;;;;;;;18.38;55.15;96142.97;4956610;28;20055;-75
2023/05/15 11:26:06;;;;;;;5.88;4.30;;;;;;;18.40;53.54;96127.69;4956618;29;20097;-76
2023/05/15 11:28:42;;;;;;;4.40;4.05;;;;;;;18.48;55.00;96129.13;4956615;28;20054;-76
2023/05/15 11:31:11;;;;;;;4.57;4.18;;;;;;;18.55;54.33;96128.97;4956753;29;20422;-76
2023/05/15 11:33:39;;;;;;;4.25;3.92;;;;;;;18.62;53.91;96124.28;4956846;28;20061;-76
2023/05/15 11:36:08;;;;;;;5.38;4.70;;;;;;;18.73;53.65;96131.28;4965693;28;20047;-76
2023/05/15 11:38:39;;;;;;;4.47;4.00;;;;;;;18.86;55.03;96136.25;4970981;29;20089;-76
2023/05/15 11:41:18;;;;;;;4.63;4.18;;;;;;;18.97;54.92;96121.31;4972884;29;20094;-76
2023/05/15 11:43:46;;;;;;;4.68;3.95;;;;;;;19.06;55.33;96122.47;4964260;28;20054;-76
2023/05/15 11:46:15;;;;;;;4.70;4.30;;;;;;;19.17;55.66;96131.31;4958280;29;20055;-76
2023/05/15 11:48:43;;;;;;;4.43;4.03;;;;;;;19.28;52.86;96154.19;4956249;28;20180;-76
2023/05/15 11:51:16;;;;;;;4.15;3.83;;;;;;;19.38;51.40;96150.84;4956827;28;20057;-76
2023/05/15 11:53:44;;;;;;;3.15;2.70;;;;;;;19.42;48.07;96153.81;4961601;28;20055;-76